sensor_id;sensor_type;location;lat;lon;timestamp;temperature;humidity
48898;DHT22;34713;50.038;20.000;2022-08-19T00:01:44;24.84;62.83
48898;DHT22;34713;50.038;20.000;2022-08-19T00:04:13;24.82;62.89
48898;DHT22;34713;50.038;20.000;2022-08-19T00:06:42;24.80;62.91
48898;DHT22;34713;50.038;20.000;2022-08-19T00:09:12;24.80;62.92
48898;DHT22;34713;50.038;20.000;2022-08-19T00:11:38;24.80;62.95
48898;DHT22;34713;50.038;20.000;2022-08-19T00:14:07;24.75;62.99
48898;DHT22;34713;50.038;20.000;2022-08-19T00:16:38;24.74;63.00
48898;DHT22;34713;50.038;20.000;2022-08-19T00:19:05;24.72;63.08
48898;DHT22;34713;50.038;20.000;2022-08-19T00:21:32;24.71;63.20
48898;DHT22;34713;50.038;20.000;2022-08-19T00:23:58;24.70;63.16
48898;DHT22;34713;50.038;20.000;2022-08-19T00:26:27;24.70;63.24
48898;DHT22;34713;50.038;20.000;2022-08-19T00:28:53;24.70;63.25
48898;DHT22;34713;50.038;20.000;2022-08-19T00:31:19;24.68;63.33
48898;DHT22;34713;50.038;20.000;2022-08-19T00:33:46;24.66;63.39
48898;DHT22;34713;50.038;20.000;2022-08-19T00:36:13;24.61;63.44
48898;DHT22;34713;50.038;20.000;2022-08-19T00:38:39;24.59;63.49
48898;DHT22;34713;50.038;20.000;2022-08-19T00:41:17;24.56;63.61
48898;DHT22;34713;50.038;20.000;2022-08-19T00:44:19;24.53;63.64
48898;DHT22;34713;50.038;20.000;2022-08-19T00:46:25;24.51;63.69
48898;DHT22;34713;50.038;20.000;2022-08-19T00:48:51;24.50;63.68
48898;DHT22;34713;50.038;20.000;2022-08-19T00:51:17;24.50;63.78
48898;DHT22;34713;50.038;20.000;2022-08-19T00:53:43;24.49;63.80
48898;DHT22;34713;50.038;20.000;2022-08-19T00:56:08;24.51;63.79
48898;DHT22;34713;50.038;20.000;2022-08-19T00:58:35;24.50;63.78
48898;DHT22;34713;50.038;20.000;2022-08-19T01:01:03;24.53;63.76
48898;DHT22;34713;50.038;20.000;2022-08-19T01:03:29;24.51;63.72
48898;DHT22;34713;50.038;20.000;2022-08-19T01:05:55;24.50;63.81
48898;DHT22;34713;50.038;20.000;2022-08-19T01:08:22;24.49;63.81
48898;DHT22;34713;50.038;20.000;2022-08-19T01:10:55;24.49;63.94
48898;DHT22;34713;50.038;20.000;2022-08-19T01:13:26;24.43;64.00
48898;DHT22;34713;50.038;20.000;2022-08-19T01:16:02;24.43;64.05
48898;DHT22;34713;50.038;20.000;2022-08-19T01:18:29;24.40;64.05
48898;DHT22;34713;50.038;20.000;2022-08-19T01:21:00;24.38;64.21
48898;DHT22;34713;50.038;20.000;2022-08-19T01:23:26;24.36;64.30
48898;DHT22;34713;50.038;20.000;2022-08-19T01:25:54;24.33;64.27
48898;DHT22;34713;50.038;20.000;2022-08-19T01:28:25;24.30;64.32
48898;DHT22;34713;50.038;20.000;2022-08-19T01:30:53;24.29;64.36
48898;DHT22;34713;50.038;20.000;2022-08-19T01:33:20;24.24;64.33
48898;DHT22;34713;50.038;20.000;2022-08-19T01:35:47;24.23;64.43
48898;DHT22;34713;50.038;20.000;2022-08-19T01:38:26;24.24;64.44
48898;DHT22;34713;50.038;20.000;2022-08-19T01:40:52;24.22;64.42
48898;DHT22;34713;50.038;20.000;2022-08-19T01:43:18;24.20;64.46
48898;DHT22;34713;50.038;20.000;2022-08-19T01:45:46;24.19;64.56
48898;DHT22;34713;50.038;20.000;2022-08-19T01:48:12;24.19;64.65
48898;DHT22;34713;50.038;20.000;2022-08-19T01:50:38;24.17;64.64
48898;DHT22;34713;50.038;20.000;2022-08-19T01:53:08;24.15;64.63
48898;DHT22;34713;50.038;20.000;2022-08-19T01:55:39;24.12;64.62
48898;DHT22;34713;50.038;20.000;2022-08-19T01:58:06;24.13;64.60
48898;DHT22;34713;50.038;20.000;2022-08-19T02:00:33;24.13;64.72
48898;DHT22;34713;50.038;20.000;2022-08-19T02:02:59;24.09;64.75
48898;DHT22;34713;50.038;20.000;2022-08-19T02:05:26;24.09;64.70
48898;DHT22;34713;50.038;20.000;2022-08-19T02:07:56;24.09;64.70
48898;DHT22;34713;50.038;20.000;2022-08-19T02:10:22;24.09;64.76
48898;DHT22;34713;50.038;20.000;2022-08-19T02:12:49;24.06;64.81
48898;DHT22;34713;50.038;20.000;2022-08-19T02:15:17;24.05;64.86
48898;DHT22;34713;50.038;20.000;2022-08-19T02:17:44;24.02;64.84
48898;DHT22;34713;50.038;20.000;2022-08-19T02:20:11;24.01;64.90
48898;DHT22;34713;50.038;20.000;2022-08-19T02:22:39;24.01;64.99
48898;DHT22;34713;50.038;20.000;2022-08-19T02:25:12;23.99;65.04
48898;DHT22;34713;50.038;20.000;2022-08-19T02:27:38;23.96;64.99
48898;DHT22;34713;50.038;20.000;2022-08-19T02:30:07;23.98;65.00
48898;DHT22;34713;50.038;20.000;2022-08-19T02:32:33;23.92;65.08
48898;DHT22;34713;50.038;20.000;2022-08-19T02:34:59;23.94;65.17
48898;DHT22;34713;50.038;20.000;2022-08-19T02:37:25;23.91;65.26
48898;DHT22;34713;50.038;20.000;2022-08-19T02:40:09;23.87;65.23
48898;DHT22;34713;50.038;20.000;2022-08-19T02:42:35;23.88;65.25
48898;DHT22;34713;50.038;20.000;2022-08-19T02:45:02;23.87;65.35
48898;DHT22;34713;50.038;20.000;2022-08-19T02:47:28;23.82;65.43
48898;DHT22;34713;50.038;20.000;2022-08-19T02:49:54;23.84;65.40
48898;DHT22;34713;50.038;20.000;2022-08-19T02:52:19;23.84;65.41
48898;DHT22;34713;50.038;20.000;2022-08-19T02:54:45;23.81;65.40
48898;DHT22;34713;50.038;20.000;2022-08-19T02:57:11;23.82;65.46
48898;DHT22;34713;50.038;20.000;2022-08-19T02:59:37;23.80;65.44
48898;DHT22;34713;50.038;20.000;2022-08-19T03:02:03;23.78;65.52
48898;DHT22;34713;50.038;20.000;2022-08-19T03:04:29;23.80;65.60
48898;DHT22;34713;50.038;20.000;2022-08-19T03:06:55;23.78;65.55
48898;DHT22;34713;50.038;20.000;2022-08-19T03:09:21;23.75;65.55
48898;DHT22;34713;50.038;20.000;2022-08-19T03:11:47;23.75;65.62
48898;DHT22;34713;50.038;20.000;2022-08-19T03:14:13;23.77;65.64
48898;DHT22;34713;50.038;20.000;2022-08-19T03:16:46;23.74;65.68
48898;DHT22;34713;50.038;20.000;2022-08-19T03:19:10;23.74;65.75
48898;DHT22;34713;50.038;20.000;2022-08-19T03:21:36;23.71;65.82
48898;DHT22;34713;50.038;20.000;2022-08-19T03:24:06;23.65;66.07
48898;DHT22;34713;50.038;20.000;2022-08-19T03:26:33;23.55;66.32
48898;DHT22;34713;50.038;20.000;2022-08-19T03:29:04;23.50;66.42
48898;DHT22;34713;50.038;20.000;2022-08-19T03:31:30;23.44;66.47
48898;DHT22;34713;50.038;20.000;2022-08-19T03:33:56;23.47;66.54
48898;DHT22;34713;50.038;20.000;2022-08-19T03:36:25;23.44;66.50
48898;DHT22;34713;50.038;20.000;2022-08-19T03:38:58;23.44;66.45
48898;DHT22;34713;50.038;20.000;2022-08-19T03:41:27;23.44;66.48
48898;DHT22;34713;50.038;20.000;2022-08-19T03:43:53;23.45;66.48
48898;DHT22;34713;50.038;20.000;2022-08-19T03:46:24;23.44;66.53
48898;DHT22;34713;50.038;20.000;2022-08-19T03:48:53;23.44;66.52
48898;DHT22;34713;50.038;20.000;2022-08-19T03:51:27;23.41;66.60
48898;DHT22;34713;50.038;20.000;2022-08-19T03:53:55;23.41;66.62
48898;DHT22;34713;50.038;20.000;2022-08-19T03:56:22;23.41;66.68
48898;DHT22;34713;50.038;20.000;2022-08-19T03:58:48;23.38;66.71
48898;DHT22;34713;50.038;20.000;2022-08-19T04:01:18;23.40;66.79
48898;DHT22;34713;50.038;20.000;2022-08-19T04:03:47;23.45;66.78
48898;DHT22;34713;50.038;20.000;2022-08-19T04:06:20;23.47;66.76
48898;DHT22;34713;50.038;20.000;2022-08-19T04:08:49;23.50;66.71
48898;DHT22;34713;50.038;20.000;2022-08-19T04:11:21;23.51;66.66
48898;DHT22;34713;50.038;20.000;2022-08-19T04:13:49;23.53;66.66
48898;DHT22;34713;50.038;20.000;2022-08-19T04:16:25;23.57;66.65
48898;DHT22;34713;50.038;20.000;2022-08-19T04:18:48;23.57;66.61
48898;DHT22;34713;50.038;20.000;2022-08-19T04:21:21;23.65;66.52
48898;DHT22;34713;50.038;20.000;2022-08-19T04:23:48;23.68;66.38
48898;DHT22;34713;50.038;20.000;2022-08-19T04:26:20;23.74;66.27
48898;DHT22;34713;50.038;20.000;2022-08-19T04:28:47;23.77;66.26
48898;DHT22;34713;50.038;20.000;2022-08-19T04:31:17;23.82;66.08
48898;DHT22;34713;50.038;20.000;2022-08-19T04:33:43;23.91;65.93
48898;DHT22;34713;50.038;20.000;2022-08-19T04:36:19;23.99;65.70
48898;DHT22;34713;50.038;20.000;2022-08-19T04:38:48;24.06;65.49
48898;DHT22;34713;50.038;20.000;2022-08-19T04:41:14;24.12;65.44
48898;DHT22;34713;50.038;20.000;2022-08-19T04:43:59;24.20;65.30
48898;DHT22;34713;50.038;20.000;2022-08-19T04:46:25;24.29;65.17
48898;DHT22;34713;50.038;20.000;2022-08-19T04:48:51;24.38;64.97
48898;DHT22;34713;50.038;20.000;2022-08-19T04:51:18;24.42;64.77
48898;DHT22;34713;50.038;20.000;2022-08-19T04:53:46;24.51;64.67
48898;DHT22;34713;50.038;20.000;2022-08-19T04:56:15;24.57;64.53
48898;DHT22;34713;50.038;20.000;2022-08-19T04:58:44;24.64;64.41
48898;DHT22;34713;50.038;20.000;2022-08-19T05:01:18;24.68;64.30
48898;DHT22;34713;50.038;20.000;2022-08-19T05:03:44;24.77;64.12
48898;DHT22;34713;50.038;20.000;2022-08-19T05:06:13;24.80;64.10
48898;DHT22;34713;50.038;20.000;2022-08-19T05:08:41;24.81;64.05
48898;DHT22;34713;50.038;20.000;2022-08-19T05:13:43;24.88;63.83
48898;DHT22;34713;50.038;20.000;2022-08-19T05:16:12;24.97;63.81
48898;DHT22;34713;50.038;20.000;2022-08-19T05:18:39;25.11;63.48
48898;DHT22;34713;50.038;20.000;2022-08-19T05:21:24;25.21;63.26
48898;DHT22;34713;50.038;20.000;2022-08-19T05:24:09;25.35;63.01
48898;DHT22;34713;50.038;20.000;2022-08-19T05:26:41;25.56;62.60
48898;DHT22;34713;50.038;20.000;2022-08-19T05:29:08;25.80;62.31
48898;DHT22;34713;50.038;20.000;2022-08-19T05:31:35;26.17;61.55
48898;DHT22;34713;50.038;20.000;2022-08-19T05:34:02;26.75;60.51
48898;DHT22;34713;50.038;20.000;2022-08-19T05:36:34;27.41;58.80
48898;DHT22;34713;50.038;20.000;2022-08-19T05:39:00;28.02;57.48
48898;DHT22;34713;50.038;20.000;2022-08-19T05:41:26;28.57;56.35
48898;DHT22;34713;50.038;20.000;2022-08-19T05:43:54;29.18;55.17
48898;DHT22;34713;50.038;20.000;2022-08-19T05:46:21;29.75;54.17
48898;DHT22;34713;50.038;20.000;2022-08-19T05:48:47;30.31;53.06
48898;DHT22;34713;50.038;20.000;2022-08-19T05:51:14;30.87;52.10
48898;DHT22;34713;50.038;20.000;2022-08-19T05:53:40;31.27;51.35
48898;DHT22;34713;50.038;20.000;2022-08-19T05:56:10;31.48;50.80
48898;DHT22;34713;50.038;20.000;2022-08-19T05:58:37;31.45;51.02
48898;DHT22;34713;50.038;20.000;2022-08-19T06:01:09;31.34;51.12
48898;DHT22;34713;50.038;20.000;2022-08-19T06:03:33;31.22;51.27
48898;DHT22;34713;50.038;20.000;2022-08-19T06:05:59;31.17;51.23
48898;DHT22;34713;50.038;20.000;2022-08-19T06:08:26;31.06;50.98
48898;DHT22;34713;50.038;20.000;2022-08-19T06:10:53;31.03;50.91
48898;DHT22;34713;50.038;20.000;2022-08-19T06:13:19;31.21;50.50
48898;DHT22;34713;50.038;20.000;2022-08-19T06:15:46;31.58;49.70
48898;DHT22;34713;50.038;20.000;2022-08-19T06:18:14;32.02;49.03
48898;DHT22;34713;50.038;20.000;2022-08-19T06:20:41;32.44;47.76
48898;DHT22;34713;50.038;20.000;2022-08-19T06:23:07;32.70;47.35
48898;DHT22;34713;50.038;20.000;2022-08-19T06:25:35;33.02;46.35
48898;DHT22;34713;50.038;20.000;2022-08-19T06:28:01;33.15;46.53
48898;DHT22;34713;50.038;20.000;2022-08-19T06:30:28;33.29;46.31
48898;DHT22;34713;50.038;20.000;2022-08-19T06:32:54;33.25;46.58
48898;DHT22;34713;50.038;20.000;2022-08-19T06:35:20;33.30;46.37
48898;DHT22;34713;50.038;20.000;2022-08-19T06:37:45;33.32;46.29
48898;DHT22;34713;50.038;20.000;2022-08-19T06:40:12;33.42;46.10
48898;DHT22;34713;50.038;20.000;2022-08-19T06:42:38;33.49;45.36
48898;DHT22;34713;50.038;20.000;2022-08-19T06:45:06;33.49;45.17
48898;DHT22;34713;50.038;20.000;2022-08-19T06:47:34;33.52;44.92
48898;DHT22;34713;50.038;20.000;2022-08-19T06:50:00;33.50;44.90
48898;DHT22;34713;50.038;20.000;2022-08-19T06:52:33;33.64;44.97
48898;DHT22;34713;50.038;20.000;2022-08-19T06:55:01;34.00;44.13
48898;DHT22;34713;50.038;20.000;2022-08-19T06:57:27;34.32;42.80
48898;DHT22;34713;50.038;20.000;2022-08-19T06:59:55;34.56;42.48
48898;DHT22;34713;50.038;20.000;2022-08-19T07:02:22;34.94;42.10
48898;DHT22;34713;50.038;20.000;2022-08-19T07:04:49;35.61;40.25
48898;DHT22;34713;50.038;20.000;2022-08-19T07:07:16;36.15;39.28
48898;DHT22;34713;50.038;20.000;2022-08-19T07:09:43;36.50;38.53
48898;DHT22;34713;50.038;20.000;2022-08-19T07:12:11;36.70;38.29
48898;DHT22;34713;50.038;20.000;2022-08-19T07:14:39;36.62;38.59
48898;DHT22;34713;50.038;20.000;2022-08-19T07:17:09;36.22;39.30
48898;DHT22;34713;50.038;20.000;2022-08-19T07:19:38;35.77;39.99
48898;DHT22;34713;50.038;20.000;2022-08-19T07:22:06;35.29;40.95
48898;DHT22;34713;50.038;20.000;2022-08-19T07:24:33;34.94;41.77
48898;DHT22;34713;50.038;20.000;2022-08-19T07:27:01;34.62;42.20
48898;DHT22;34713;50.038;20.000;2022-08-19T07:29:30;34.32;42.59
48898;DHT22;34713;50.038;20.000;2022-08-19T07:31:57;34.08;42.87
48898;DHT22;34713;50.038;20.000;2022-08-19T07:34:25;33.84;43.20
48898;DHT22;34713;50.038;20.000;2022-08-19T07:36:52;33.60;43.69
48898;DHT22;34713;50.038;20.000;2022-08-19T07:39:27;33.45;44.02
48898;DHT22;34713;50.038;20.000;2022-08-19T07:41:54;33.28;43.89
48898;DHT22;34713;50.038;20.000;2022-08-19T07:44:21;33.09;44.20
48898;DHT22;34713;50.038;20.000;2022-08-19T07:46:52;32.92;44.55
48898;DHT22;34713;50.038;20.000;2022-08-19T07:49:20;32.75;45.15
48898;DHT22;34713;50.038;20.000;2022-08-19T07:51:50;32.65;44.74
48898;DHT22;34713;50.038;20.000;2022-08-19T07:54:18;32.57;44.94
48898;DHT22;34713;50.038;20.000;2022-08-19T07:56:44;32.53;45.34
48898;DHT22;34713;50.038;20.000;2022-08-19T07:59:10;32.50;45.55
48898;DHT22;34713;50.038;20.000;2022-08-19T08:01:38;32.47;45.38
48898;DHT22;34713;50.038;20.000;2022-08-19T08:04:06;32.33;45.76
48898;DHT22;34713;50.038;20.000;2022-08-19T08:06:52;32.17;46.30
48898;DHT22;34713;50.038;20.000;2022-08-19T08:09:41;32.09;46.64
48898;DHT22;34713;50.038;20.000;2022-08-19T08:12:16;31.97;46.97
48898;DHT22;34713;50.038;20.000;2022-08-19T08:14:46;31.93;47.03
48898;DHT22;34713;50.038;20.000;2022-08-19T08:17:15;31.90;47.00
48898;DHT22;34713;50.038;20.000;2022-08-19T08:19:43;31.90;46.69
48898;DHT22;34713;50.038;20.000;2022-08-19T08:22:11;31.92;46.85
48898;DHT22;34713;50.038;20.000;2022-08-19T08:24:45;32.02;47.08
48898;DHT22;34713;50.038;20.000;2022-08-19T08:27:11;32.07;47.14
48898;DHT22;34713;50.038;20.000;2022-08-19T08:29:36;32.09;46.97
48898;DHT22;34713;50.038;20.000;2022-08-19T08:32:03;32.13;46.80
48898;DHT22;34713;50.038;20.000;2022-08-19T08:34:29;32.20;46.99
48898;DHT22;34713;50.038;20.000;2022-08-19T08:36:55;32.31;47.35
48898;DHT22;34713;50.038;20.000;2022-08-19T08:39:21;32.41;46.81
48898;DHT22;34713;50.038;20.000;2022-08-19T08:41:58;32.48;46.58
48898;DHT22;34713;50.038;20.000;2022-08-19T08:44:39;32.57;46.34
48898;DHT22;34713;50.038;20.000;2022-08-19T08:47:05;32.63;46.59
48898;DHT22;34713;50.038;20.000;2022-08-19T08:49:48;32.68;46.89
48898;DHT22;34713;50.038;20.000;2022-08-19T08:52:30;32.68;47.15
48898;DHT22;34713;50.038;20.000;2022-08-19T08:55:00;32.67;46.86
48898;DHT22;34713;50.038;20.000;2022-08-19T09:00:07;32.68;47.13
48898;DHT22;34713;50.038;20.000;2022-08-19T09:02:33;32.64;47.13
48898;DHT22;34713;50.038;20.000;2022-08-19T09:04:59;32.64;47.23
48898;DHT22;34713;50.038;20.000;2022-08-19T09:08:00;32.57;47.26
48898;DHT22;34713;50.038;20.000;2022-08-19T09:10:49;32.48;47.50
48898;DHT22;34713;50.038;20.000;2022-08-19T09:16:26;32.41;47.98
48898;DHT22;34713;50.038;20.000;2022-08-19T09:18:57;32.45;47.89
48898;DHT22;34713;50.038;20.000;2022-08-19T09:21:25;32.40;47.90
48898;DHT22;34713;50.038;20.000;2022-08-19T09:23:53;32.37;47.93
48898;DHT22;34713;50.038;20.000;2022-08-19T09:26:21;32.34;47.83
48898;DHT22;34713;50.038;20.000;2022-08-19T09:28:51;32.28;47.92
48898;DHT22;34713;50.038;20.000;2022-08-19T09:31:25;32.27;47.76
48898;DHT22;34713;50.038;20.000;2022-08-19T09:33:51;32.31;47.27
48898;DHT22;34713;50.038;20.000;2022-08-19T09:36:21;32.30;47.44
48898;DHT22;34713;50.038;20.000;2022-08-19T09:38:48;32.23;47.66
48898;DHT22;34713;50.038;20.000;2022-08-19T09:41:18;32.19;47.64
48898;DHT22;34713;50.038;20.000;2022-08-19T09:43:49;32.16;47.59
48898;DHT22;34713;50.038;20.000;2022-08-19T09:46:19;32.17;47.36
48898;DHT22;34713;50.038;20.000;2022-08-19T09:48:47;32.19;47.14
48898;DHT22;34713;50.038;20.000;2022-08-19T09:51:18;32.15;46.79
48898;DHT22;34713;50.038;20.000;2022-08-19T09:53:46;32.12;46.96
48898;DHT22;34713;50.038;20.000;2022-08-19T09:56:14;32.09;47.17
48898;DHT22;34713;50.038;20.000;2022-08-19T09:58:40;32.03;47.10
48898;DHT22;34713;50.038;20.000;2022-08-19T10:01:07;32.07;47.58
48898;DHT22;34713;50.038;20.000;2022-08-19T10:03:35;32.07;47.66
48898;DHT22;34713;50.038;20.000;2022-08-19T10:06:04;32.10;47.75
48898;DHT22;34713;50.038;20.000;2022-08-19T10:08:34;32.13;47.78
48898;DHT22;34713;50.038;20.000;2022-08-19T10:11:02;32.17;47.42
48898;DHT22;34713;50.038;20.000;2022-08-19T10:13:30;32.19;46.96
48898;DHT22;34713;50.038;20.000;2022-08-19T10:16:05;32.20;46.38
48898;DHT22;34713;50.038;20.000;2022-08-19T10:18:32;32.20;46.05
48898;DHT22;34713;50.038;20.000;2022-08-19T10:21:19;32.19;46.29
48898;DHT22;34713;50.038;20.000;2022-08-19T10:23:49;32.20;46.05
48898;DHT22;34713;50.038;20.000;2022-08-19T10:26:23;32.22;46.02
48898;DHT22;34713;50.038;20.000;2022-08-19T10:28:45;32.28;45.68
48898;DHT22;34713;50.038;20.000;2022-08-19T10:31:22;32.27;44.87
48898;DHT22;34713;50.038;20.000;2022-08-19T10:33:50;32.28;44.75
48898;DHT22;34713;50.038;20.000;2022-08-19T10:36:22;32.27;44.49
48898;DHT22;34713;50.038;20.000;2022-08-19T10:38:52;32.31;44.41
48898;DHT22;34713;50.038;20.000;2022-08-19T10:41:22;32.36;44.20
48898;DHT22;34713;50.038;20.000;2022-08-19T10:43:51;32.34;44.69
48898;DHT22;34713;50.038;20.000;2022-08-19T10:46:21;32.34;44.01
48898;DHT22;34713;50.038;20.000;2022-08-19T10:48:48;32.34;44.24
48898;DHT22;34713;50.038;20.000;2022-08-19T10:51:16;32.34;44.94
48898;DHT22;34713;50.038;20.000;2022-08-19T10:54:01;32.37;45.14
48898;DHT22;34713;50.038;20.000;2022-08-19T10:56:28;32.34;44.94
48898;DHT22;34713;50.038;20.000;2022-08-19T10:59:14;32.37;45.29
48898;DHT22;34713;50.038;20.000;2022-08-19T11:01:43;32.38;45.44
48898;DHT22;34713;50.038;20.000;2022-08-19T11:04:10;32.41;45.51
48898;DHT22;34713;50.038;20.000;2022-08-19T11:06:41;32.43;45.29
48898;DHT22;34713;50.038;20.000;2022-08-19T11:09:10;32.45;44.28
48898;DHT22;34713;50.038;20.000;2022-08-19T11:11:37;32.43;44.13
48898;DHT22;34713;50.038;20.000;2022-08-19T11:14:10;32.45;44.27
48898;DHT22;34713;50.038;20.000;2022-08-19T11:16:37;32.47;44.10
48898;DHT22;34713;50.038;20.000;2022-08-19T11:19:05;32.47;44.56
48898;DHT22;34713;50.038;20.000;2022-08-19T11:21:37;32.45;44.91
48898;DHT22;34713;50.038;20.000;2022-08-19T11:24:12;32.44;45.45
48898;DHT22;34713;50.038;20.000;2022-08-19T11:26:39;32.47;45.34
48898;DHT22;34713;50.038;20.000;2022-08-19T11:29:07;32.43;45.52
48898;DHT22;34713;50.038;20.000;2022-08-19T11:31:35;32.40;45.73
48898;DHT22;34713;50.038;20.000;2022-08-19T11:34:06;32.40;45.67
48898;DHT22;34713;50.038;20.000;2022-08-19T11:36:33;32.43;45.93
48898;DHT22;34713;50.038;20.000;2022-08-19T11:39:01;32.40;46.27
48898;DHT22;34713;50.038;20.000;2022-08-19T11:41:27;32.43;46.33
48898;DHT22;34713;50.038;20.000;2022-08-19T11:43:54;32.45;46.28
48898;DHT22;34713;50.038;20.000;2022-08-19T11:46:23;32.44;45.83
48898;DHT22;34713;50.038;20.000;2022-08-19T11:48:49;32.44;45.73
48898;DHT22;34713;50.038;20.000;2022-08-19T11:51:20;32.47;46.00
48898;DHT22;34713;50.038;20.000;2022-08-19T11:53:48;32.47;46.11
48898;DHT22;34713;50.038;20.000;2022-08-19T11:56:16;32.51;46.33
48898;DHT22;34713;50.038;20.000;2022-08-19T11:58:42;32.53;46.55
48898;DHT22;34713;50.038;20.000;2022-08-19T12:01:09;32.55;46.29
48898;DHT22;34713;50.038;20.000;2022-08-19T12:03:37;32.55;46.85
48898;DHT22;34713;50.038;20.000;2022-08-19T12:06:11;32.57;46.88
48898;DHT22;34713;50.038;20.000;2022-08-19T12:08:33;32.61;47.10
48898;DHT22;34713;50.038;20.000;2022-08-19T12:11:00;32.63;47.31
48898;DHT22;34713;50.038;20.000;2022-08-19T12:13:30;32.64;47.27
48898;DHT22;34713;50.038;20.000;2022-08-19T12:15:57;32.64;47.58
48898;DHT22;34713;50.038;20.000;2022-08-19T12:18:23;32.64;47.81
48898;DHT22;34713;50.038;20.000;2022-08-19T12:20:52;32.67;47.21
48898;DHT22;34713;50.038;20.000;2022-08-19T12:23:20;32.63;47.35
48898;DHT22;34713;50.038;20.000;2022-08-19T12:25:48;32.60;47.50
48898;DHT22;34713;50.038;20.000;2022-08-19T12:28:19;32.60;47.40
48898;DHT22;34713;50.038;20.000;2022-08-19T12:30:47;32.60;47.48
48898;DHT22;34713;50.038;20.000;2022-08-19T12:33:13;32.63;47.19
48898;DHT22;34713;50.038;20.000;2022-08-19T12:35:42;32.58;47.15
48898;DHT22;34713;50.038;20.000;2022-08-19T12:38:08;32.61;46.98
48898;DHT22;34713;50.038;20.000;2022-08-19T12:40:34;32.60;46.78
48898;DHT22;34713;50.038;20.000;2022-08-19T12:43:00;32.63;46.93
48898;DHT22;34713;50.038;20.000;2022-08-19T12:45:26;32.64;46.60
48898;DHT22;34713;50.038;20.000;2022-08-19T12:47:51;32.64;46.84
48898;DHT22;34713;50.038;20.000;2022-08-19T12:50:18;32.67;46.92
48898;DHT22;34713;50.038;20.000;2022-08-19T12:52:47;32.67;46.77
48898;DHT22;34713;50.038;20.000;2022-08-19T12:55:13;32.72;46.37
48898;DHT22;34713;50.038;20.000;2022-08-19T12:57:40;32.75;45.81
48898;DHT22;34713;50.038;20.000;2022-08-19T13:00:16;32.75;45.44
48898;DHT22;34713;50.038;20.000;2022-08-19T13:02:45;32.81;44.52
48898;DHT22;34713;50.038;20.000;2022-08-19T13:05:16;32.84;45.01
48898;DHT22;34713;50.038;20.000;2022-08-19T13:07:42;32.85;44.98
48898;DHT22;34713;50.038;20.000;2022-08-19T13:10:13;32.84;45.00
48898;DHT22;34713;50.038;20.000;2022-08-19T13:12:42;32.88;44.59
48898;DHT22;34713;50.038;20.000;2022-08-19T13:15:09;32.85;44.48
48898;DHT22;34713;50.038;20.000;2022-08-19T13:17:36;32.85;44.46
48898;DHT22;34713;50.038;20.000;2022-08-19T13:20:04;32.85;44.46
48898;DHT22;34713;50.038;20.000;2022-08-19T13:22:31;32.85;44.39
48898;DHT22;34713;50.038;20.000;2022-08-19T13:24:57;32.85;44.34
48898;DHT22;34713;50.038;20.000;2022-08-19T13:27:23;32.85;44.21
48898;DHT22;34713;50.038;20.000;2022-08-19T13:29:49;32.86;43.76
48898;DHT22;34713;50.038;20.000;2022-08-19T13:32:31;32.89;43.43
48898;DHT22;34713;50.038;20.000;2022-08-19T13:35:16;32.91;41.25
48898;DHT22;34713;50.038;20.000;2022-08-19T13:37:43;32.91;41.08
48898;DHT22;34713;50.038;20.000;2022-08-19T13:40:20;32.89;41.68
48898;DHT22;34713;50.038;20.000;2022-08-19T13:42:52;32.92;42.60
48898;DHT22;34713;50.038;20.000;2022-08-19T13:45:22;32.92;43.10
48898;DHT22;34713;50.038;20.000;2022-08-19T13:47:52;32.94;43.04
48898;DHT22;34713;50.038;20.000;2022-08-19T13:50:23;32.92;42.53
48898;DHT22;34713;50.038;20.000;2022-08-19T13:52:52;32.98;42.22
48898;DHT22;34713;50.038;20.000;2022-08-19T13:55:18;32.95;42.74
48898;DHT22;34713;50.038;20.000;2022-08-19T13:57:44;32.91;43.39
48898;DHT22;34713;50.038;20.000;2022-08-19T14:00:17;32.91;43.30
48898;DHT22;34713;50.038;20.000;2022-08-19T14:02:46;32.91;42.97
48898;DHT22;34713;50.038;20.000;2022-08-19T14:05:15;32.91;42.93
48898;DHT22;34713;50.038;20.000;2022-08-19T14:07:41;32.94;42.83
48898;DHT22;34713;50.038;20.000;2022-08-19T14:10:11;32.94;42.41
48898;DHT22;34713;50.038;20.000;2022-08-19T14:12:38;32.98;42.44
48898;DHT22;34713;50.038;20.000;2022-08-19T14:15:08;32.99;42.81
48898;DHT22;34713;50.038;20.000;2022-08-19T14:17:34;32.98;42.06
48898;DHT22;34713;50.038;20.000;2022-08-19T14:20:06;32.99;41.67
48898;DHT22;34713;50.038;20.000;2022-08-19T14:22:36;33.02;41.71
48898;DHT22;34713;50.038;20.000;2022-08-19T14:25:04;32.99;41.17
48898;DHT22;34713;50.038;20.000;2022-08-19T14:27:36;33.01;40.78
48898;DHT22;34713;50.038;20.000;2022-08-19T14:30:08;32.99;41.17
48898;DHT22;34713;50.038;20.000;2022-08-19T14:32:34;33.01;41.58
48898;DHT22;34713;50.038;20.000;2022-08-19T14:35:01;32.99;41.79
48898;DHT22;34713;50.038;20.000;2022-08-19T14:37:27;32.98;41.27
48898;DHT22;34713;50.038;20.000;2022-08-19T14:39:53;32.98;40.64
48898;DHT22;34713;50.038;20.000;2022-08-19T14:42:19;32.98;41.01
48898;DHT22;34713;50.038;20.000;2022-08-19T14:44:45;32.95;41.31
48898;DHT22;34713;50.038;20.000;2022-08-19T14:47:11;32.97;41.69
48898;DHT22;34713;50.038;20.000;2022-08-19T14:49:37;32.95;41.94
48898;DHT22;34713;50.038;20.000;2022-08-19T14:52:04;32.94;41.48
48898;DHT22;34713;50.038;20.000;2022-08-19T14:54:30;32.94;41.29
48898;DHT22;34713;50.038;20.000;2022-08-19T14:56:56;32.91;41.20
48898;DHT22;34713;50.038;20.000;2022-08-19T14:59:22;32.88;40.97
48898;DHT22;34713;50.038;20.000;2022-08-19T15:01:48;32.86;41.12
48898;DHT22;34713;50.038;20.000;2022-08-19T15:04:14;32.84;41.05
48898;DHT22;34713;50.038;20.000;2022-08-19T15:06:40;32.78;41.18
48898;DHT22;34713;50.038;20.000;2022-08-19T15:09:08;32.77;41.32
48898;DHT22;34713;50.038;20.000;2022-08-19T15:11:35;32.74;41.55
48898;DHT22;34713;50.038;20.000;2022-08-19T15:14:02;32.65;41.70
48898;DHT22;34713;50.038;20.000;2022-08-19T15:16:28;32.61;42.03
48898;DHT22;34713;50.038;20.000;2022-08-19T15:18:57;32.55;42.33
48898;DHT22;34713;50.038;20.000;2022-08-19T15:21:24;32.53;42.56
48898;DHT22;34713;50.038;20.000;2022-08-19T15:23:51;32.45;42.64
48898;DHT22;34713;50.038;20.000;2022-08-19T15:26:19;32.43;42.57
48898;DHT22;34713;50.038;20.000;2022-08-19T15:28:45;32.41;42.52
48898;DHT22;34713;50.038;20.000;2022-08-19T15:31:15;32.38;42.59
48898;DHT22;34713;50.038;20.000;2022-08-19T15:33:40;32.31;42.68